createdAt,value
2019-05-17T00:00:50.501Z,11.41
2019-05-17T00:06:57.052Z,11.33
2019-05-17T00:13:03.088Z,11.37
2019-05-17T00:19:09.461Z,11.33
2019-05-17T00:25:16.970Z,11.32
2019-05-17T00:31:22.809Z,11.26
2019-05-17T00:37:30.360Z,11.35
2019-05-17T00:43:36.825Z,11.23
2019-05-17T00:49:43.119Z,11.20
2019-05-17T00:55:49.138Z,11.20
2019-05-17T01:01:56.229Z,11.29
2019-05-17T01:08:02.243Z,11.24
2019-05-17T01:14:07.965Z,11.24
2019-05-17T01:20:14.230Z,11.29
2019-05-17T01:26:20.194Z,11.24
2019-05-17T01:32:26.643Z,11.14
2019-05-17T01:38:32.964Z,11.11
2019-05-17T01:44:38.769Z,10.96
2019-05-17T01:50:46.457Z,11.07
2019-05-17T01:56:52.373Z,11.09
2019-05-17T02:02:58.577Z,11.12
2019-05-17T02:09:06.353Z,11.13
2019-05-17T02:15:16.471Z,11.14
2019-05-17T02:21:22.710Z,11.17
2019-05-17T02:27:34.784Z,11.07
2019-05-17T02:33:36.220Z,11.09
2019-05-17T02:39:56.574Z,11.10
2019-05-17T02:45:52.504Z,11.09
2019-05-17T02:51:57.359Z,11.16
2019-05-17T02:58:03.661Z,11.18
2019-05-17T03:04:12.811Z,11.17
2019-05-17T03:10:27.516Z,11.19
2019-05-17T03:16:26.315Z,11.20
2019-05-17T03:22:33.192Z,11.20
2019-05-17T03:28:42.447Z,11.11
2019-05-17T03:34:55.305Z,11.11
2019-05-17T03:41:09.465Z,11.05
2019-05-17T03:47:04.688Z,11.06
2019-05-17T03:53:13.149Z,10.99
2019-05-17T03:59:20.569Z,11.03
2019-05-17T04:05:33.777Z,11.04
2019-05-17T04:11:42.708Z,11.06
2019-05-17T04:17:47.495Z,10.99
2019-05-17T04:23:53.964Z,11.05
2019-05-17T04:29:59.913Z,11.11
2019-05-17T04:36:06.034Z,11.06
2019-05-17T04:42:13.615Z,11.03
2019-05-17T04:48:23.011Z,11.02
2019-05-17T04:54:27.282Z,11.08
2019-05-17T05:00:34.012Z,11.14
2019-05-17T05:06:43.405Z,11.19
2019-05-17T05:12:48.306Z,11.16
2019-05-17T05:18:55.402Z,11.29
2019-05-17T05:25:02.182Z,11.47
2019-05-17T05:31:08.149Z,11.56
2019-05-17T05:37:14.121Z,11.60
2019-05-17T05:43:22.359Z,11.64
2019-05-17T05:49:27.585Z,11.72
2019-05-17T05:55:33.448Z,11.80
2019-05-17T06:01:41.889Z,11.89
2019-05-17T06:07:48.591Z,11.98
2019-05-17T06:13:54.343Z,12.03
2019-05-17T06:20:02.381Z,12.22
2019-05-17T06:26:08.035Z,12.26
2019-05-17T06:32:13.870Z,12.37
2019-05-17T06:38:19.598Z,12.34
2019-05-17T06:44:25.373Z,12.49
2019-05-17T06:50:32.729Z,12.60
2019-05-17T06:56:38.623Z,12.64
2019-05-17T07:02:44.402Z,12.80
2019-05-17T07:08:50.189Z,12.76
2019-05-17T07:14:58.331Z,12.82
2019-05-17T07:21:03.743Z,12.76
2019-05-17T07:27:09.962Z,12.84
2019-05-17T07:33:15.981Z,12.75
2019-05-17T07:39:22.347Z,12.88
2019-05-17T07:45:29.554Z,13.02
2019-05-17T07:51:35.576Z,13.16
2019-05-17T07:57:41.803Z,13.06
2019-05-17T08:03:50.093Z,13.18
2019-05-17T08:09:56.188Z,13.33
2019-05-17T08:16:02.159Z,13.58
2019-05-17T08:22:29.369Z,13.80
2019-05-17T08:28:35.200Z,14.14
2019-05-17T08:34:40.967Z,14.47
2019-05-17T08:40:47.113Z,14.56
2019-05-17T08:46:53.222Z,14.44
2019-05-17T08:52:59.927Z,14.49
2019-05-17T08:59:06.159Z,14.33
2019-05-17T09:05:12.019Z,14.43
2019-05-17T09:11:19.672Z,14.73
2019-05-17T09:17:25.499Z,14.81
2019-05-17T09:23:31.501Z,14.82
2019-05-17T09:29:37.279Z,14.81
2019-05-17T09:35:42.999Z,14.79
2019-05-17T09:41:50.309Z,14.84
2019-05-17T09:47:56.173Z,14.74
2019-05-17T09:54:01.942Z,14.53
2019-05-17T10:00:09.920Z,14.35
2019-05-17T10:06:15.926Z,14.48
2019-05-17T10:12:22.213Z,14.59
2019-05-17T10:18:29.585Z,14.62
2019-05-17T10:24:38.971Z,14.71
2019-05-17T10:30:43.232Z,14.85
2019-05-17T10:36:50.644Z,14.97
2019-05-17T10:42:56.566Z,15.03
2019-05-17T10:49:02.279Z,14.95
2019-05-17T10:55:10.412Z,14.93
2019-05-17T11:01:15.652Z,14.84
2019-05-17T11:07:21.462Z,14.76
2019-05-17T11:13:27.304Z,14.74
2019-05-17T11:19:33.075Z,14.60
2019-05-17T11:25:45.095Z,14.68
2019-05-17T11:31:46.363Z,14.68
2019-05-17T11:37:52.251Z,14.78
2019-05-17T11:43:58.274Z,14.90
2019-05-17T11:50:04.418Z,14.78
2019-05-17T11:56:10.539Z,14.81
2019-05-17T12:02:21.276Z,14.68
2019-05-17T12:08:26.111Z,14.57
2019-05-17T12:14:31.905Z,14.48
2019-05-17T12:20:37.682Z,14.42
2019-05-17T12:26:47.206Z,14.34
2019-05-17T12:32:52.841Z,14.33
2019-05-17T12:38:58.760Z,14.49
2019-05-17T12:45:04.861Z,14.68
2019-05-17T12:51:10.716Z,14.86
2019-05-17T12:57:16.619Z,14.80
2019-05-17T13:03:22.441Z,14.61
2019-05-17T13:09:28.283Z,14.69
2019-05-17T13:15:34.023Z,14.76
2019-05-17T13:21:39.789Z,14.76
2019-05-17T13:27:45.903Z,14.86
2019-05-17T13:33:51.877Z,14.83
2019-05-17T13:39:57.601Z,14.90
2019-05-17T13:46:03.337Z,14.86
2019-05-17T13:52:09.057Z,14.97
2019-05-17T13:58:14.835Z,15.00
2019-05-17T14:04:20.670Z,15.21
2019-05-17T14:10:29.897Z,15.39
2019-05-17T14:16:34.952Z,15.53
2019-05-17T14:22:40.825Z,15.67
2019-05-17T14:28:46.795Z,15.64
2019-05-17T14:34:52.916Z,15.50
2019-05-17T14:41:08.209Z,15.45
2019-05-17T14:47:06.408Z,15.34
2019-05-17T14:53:12.356Z,15.29
2019-05-17T14:59:18.184Z,15.32
2019-05-17T15:05:23.946Z,15.36
2019-05-17T15:11:29.737Z,15.41
2019-05-17T15:17:35.545Z,15.31
2019-05-17T15:23:41.264Z,15.29
2019-05-17T15:29:47.371Z,15.30
2019-05-17T15:35:53.252Z,15.25
2019-05-17T15:41:59.247Z,15.15
2019-05-17T15:48:05.041Z,15.17
2019-05-17T15:54:11.055Z,15.16
2019-05-17T16:00:17.067Z,15.20
2019-05-17T16:06:23.286Z,15.29
2019-05-17T16:12:29.042Z,15.41
2019-05-17T16:18:34.829Z,15.44
2019-05-17T16:24:40.621Z,15.55
2019-05-17T16:30:46.418Z,15.63
2019-05-17T16:36:52.163Z,15.56
2019-05-17T16:42:58.001Z,15.49
2019-05-17T16:49:03.740Z,15.45
2019-05-17T16:55:09.583Z,15.41
2019-05-17T17:01:15.412Z,15.46
2019-05-17T17:07:21.192Z,15.55
2019-05-17T17:13:33.244Z,15.64
2019-05-17T17:19:34.691Z,15.72
2019-05-17T17:25:40.595Z,15.75
2019-05-17T17:31:46.484Z,15.85
2019-05-17T17:37:52.485Z,15.90
2019-05-17T17:43:59.540Z,15.94
2019-05-17T17:50:05.633Z,15.83
2019-05-17T17:56:13.532Z,15.75
2019-05-17T18:02:19.181Z,15.72
2019-05-17T18:08:24.975Z,15.69
2019-05-17T18:14:31.047Z,15.69
2019-05-17T18:20:37.445Z,15.68
2019-05-17T18:26:43.685Z,15.71
2019-05-17T18:32:49.720Z,15.70
2019-05-17T18:38:56.539Z,15.69
2019-05-17T18:45:02.357Z,15.66
2019-05-17T18:51:08.228Z,15.62
2019-05-17T18:57:14.819Z,15.59
2019-05-17T19:03:20.664Z,15.54
2019-05-17T19:09:26.733Z,15.51
2019-05-17T19:15:32.745Z,15.43
2019-05-17T19:21:38.570Z,15.31
2019-05-17T19:27:44.479Z,15.15
2019-05-17T19:33:50.628Z,15.04
2019-05-17T19:39:57.890Z,15.00
2019-05-17T19:46:06.419Z,14.98
2019-05-17T19:52:12.407Z,14.96
2019-05-17T19:58:18.526Z,14.87
2019-05-17T20:04:24.391Z,14.68
2019-05-17T20:10:30.228Z,14.54
2019-05-17T20:16:36.009Z,14.47
2019-05-17T20:22:42.132Z,14.47
2019-05-17T20:28:48.704Z,14.49
2019-05-17T20:34:54.726Z,14.35
2019-05-17T20:41:00.751Z,14.17
2019-05-17T20:47:06.744Z,14.14
2019-05-17T20:53:19.054Z,14.16
2019-05-17T20:59:20.579Z,14.20
2019-05-17T21:05:26.440Z,14.24
2019-05-17T21:11:32.227Z,14.28
2019-05-17T21:17:38.006Z,14.23
2019-05-17T21:23:43.899Z,14.06
2019-05-17T21:29:50.130Z,13.97
2019-05-17T21:35:56.484Z,13.97
2019-05-17T21:42:02.320Z,13.96
2019-05-17T21:48:08.137Z,13.85
2019-05-17T21:54:14.044Z,13.85
2019-05-17T22:01:07.878Z,13.88
2019-05-17T22:07:13.988Z,13.93
2019-05-17T22:13:19.964Z,13.98
2019-05-17T22:19:26.013Z,13.95
2019-05-17T22:25:32.006Z,13.80
2019-05-17T22:31:39.027Z,13.76
2019-05-17T22:37:45.208Z,13.76
2019-05-17T22:43:51.160Z,13.67
2019-05-17T22:49:57.070Z,13.59
2019-05-17T22:56:03.070Z,13.45
2019-05-17T23:02:08.865Z,13.24
2019-05-17T23:08:14.930Z,13.00
2019-05-17T23:14:20.873Z,12.88
2019-05-17T23:20:33.323Z,12.69
2019-05-17T23:26:39.136Z,12.55
2019-05-17T23:32:44.909Z,12.49
2019-05-17T23:38:51.097Z,12.43
2019-05-17T23:44:57.219Z,12.20
2019-05-17T23:51:03.057Z,11.96
2019-05-17T23:57:09.018Z,11.89
